sensor_id;sensor_type;location;lat;lon;timestamp;temperature;humidity
35313;DHT22;21425;50.454;30.466;2023-04-01T00:01:07;7.10;99.90
35313;DHT22;21425;50.454;30.466;2023-04-01T00:03:33;6.90;99.90
35313;DHT22;21425;50.454;30.466;2023-04-01T00:05:59;6.90;99.90
35313;DHT22;21425;50.454;30.466;2023-04-01T00:08:25;6.90;99.90
35313;DHT22;21425;50.454;30.466;2023-04-01T00:10:50;7.00;99.90
35313;DHT22;21425;50.454;30.466;2023-04-01T00:13:16;6.90;99.90
35313;DHT22;21425;50.454;30.466;2023-04-01T00:15:42;7.00;99.90
35313;DHT22;21425;50.454;30.466;2023-04-01T00:18:08;8.00;99.90
35313;DHT22;21425;50.454;30.466;2023-04-01T00:20:33;5.70;99.90
35313;DHT22;21425;50.454;30.466;2023-04-01T00:22:59;7.10;99.90
35313;DHT22;21425;50.454;30.466;2023-04-01T00:25:25;7.00;99.90
35313;DHT22;21425;50.454;30.466;2023-04-01T00:27:50;7.40;99.90
35313;DHT22;21425;50.454;30.466;2023-04-01T00:30:16;6.90;99.90
35313;DHT22;21425;50.454;30.466;2023-04-01T00:32:41;7.00;99.90
35313;DHT22;21425;50.454;30.466;2023-04-01T00:35:07;7.00;99.90
35313;DHT22;21425;50.454;30.466;2023-04-01T00:37:34;7.10;99.90
35313;DHT22;21425;50.454;30.466;2023-04-01T00:40:01;7.00;99.90
35313;DHT22;21425;50.454;30.466;2023-04-01T00:42:26;8.30;99.90
35313;DHT22;21425;50.454;30.466;2023-04-01T00:44:53;7.30;99.90
35313;DHT22;21425;50.454;30.466;2023-04-01T00:47:18;7.90;99.90
35313;DHT22;21425;50.454;30.466;2023-04-01T00:49:45;7.10;99.90
35313;DHT22;21425;50.454;30.466;2023-04-01T00:52:12;7.10;99.90
35313;DHT22;21425;50.454;30.466;2023-04-01T00:54:39;8.70;99.90
35313;DHT22;21425;50.454;30.466;2023-04-01T00:57:21;7.10;99.90
35313;DHT22;21425;50.454;30.466;2023-04-01T00:59:49;7.00;99.90
35313;DHT22;21425;50.454;30.466;2023-04-01T01:02:18;7.20;99.90
35313;DHT22;21425;50.454;30.466;2023-04-01T01:04:44;10.20;99.90
35313;DHT22;21425;50.454;30.466;2023-04-01T01:12:24;7.20;99.90
35313;DHT22;21425;50.454;30.466;2023-04-01T01:14:53;4.90;99.90
35313;DHT22;21425;50.454;30.466;2023-04-01T01:20:10;5.60;99.90
35313;DHT22;21425;50.454;30.466;2023-04-01T01:22:45;7.10;99.90
35313;DHT22;21425;50.454;30.466;2023-04-01T01:28:49;7.10;99.90
35313;DHT22;21425;50.454;30.466;2023-04-01T01:35:56;7.10;99.90
35313;DHT22;21425;50.454;30.466;2023-04-01T01:38:24;7.10;99.90
35313;DHT22;21425;50.454;30.466;2023-04-01T01:40:51;7.10;99.90
35313;DHT22;21425;50.454;30.466;2023-04-01T01:43:21;9.00;99.90
35313;DHT22;21425;50.454;30.466;2023-04-01T01:45:49;9.00;99.90
35313;DHT22;21425;50.454;30.466;2023-04-01T01:48:16;8.70;99.90
35313;DHT22;21425;50.454;30.466;2023-04-01T01:50:43;7.80;99.90
35313;DHT22;21425;50.454;30.466;2023-04-01T01:53:10;6.60;99.90
35313;DHT22;21425;50.454;30.466;2023-04-01T01:55:41;7.20;99.90
35313;DHT22;21425;50.454;30.466;2023-04-01T02:00:38;6.90;99.90
35313;DHT22;21425;50.454;30.466;2023-04-01T02:03:04;5.00;99.90
35313;DHT22;21425;50.454;30.466;2023-04-01T02:05:30;7.20;99.90
35313;DHT22;21425;50.454;30.466;2023-04-01T02:08:07;7.10;99.90
35313;DHT22;21425;50.454;30.466;2023-04-01T02:10:35;7.10;99.90
35313;DHT22;21425;50.454;30.466;2023-04-01T02:13:04;7.10;99.90
35313;DHT22;21425;50.454;30.466;2023-04-01T02:15:31;7.10;99.90
35313;DHT22;21425;50.454;30.466;2023-04-01T02:17:58;8.00;99.90
35313;DHT22;21425;50.454;30.466;2023-04-01T02:20:24;7.30;99.90
35313;DHT22;21425;50.454;30.466;2023-04-01T02:22:51;8.30;99.90
35313;DHT22;21425;50.454;30.466;2023-04-01T02:25:18;8.40;99.90
35313;DHT22;21425;50.454;30.466;2023-04-01T02:27:45;7.40;99.90
35313;DHT22;21425;50.454;30.466;2023-04-01T02:30:11;7.00;99.90
35313;DHT22;21425;50.454;30.466;2023-04-01T02:32:37;7.00;99.90
35313;DHT22;21425;50.454;30.466;2023-04-01T02:35:05;7.00;99.90
35313;DHT22;21425;50.454;30.466;2023-04-01T02:37:31;7.00;99.90
35313;DHT22;21425;50.454;30.466;2023-04-01T02:40:00;9.80;99.90
35313;DHT22;21425;50.454;30.466;2023-04-01T02:42:26;3.80;99.90
35313;DHT22;21425;50.454;30.466;2023-04-01T02:44:51;7.00;99.90
35313;DHT22;21425;50.454;30.466;2023-04-01T02:47:17;7.40;99.90
35313;DHT22;21425;50.454;30.466;2023-04-01T02:49:42;9.00;99.90
35313;DHT22;21425;50.454;30.466;2023-04-01T02:52:08;7.70;99.90
35313;DHT22;21425;50.454;30.466;2023-04-01T02:54:33;6.90;99.90
35313;DHT22;21425;50.454;30.466;2023-04-01T02:56:58;8.20;99.90
35313;DHT22;21425;50.454;30.466;2023-04-01T02:59:24;11.00;99.90
35313;DHT22;21425;50.454;30.466;2023-04-01T03:01:49;7.70;99.90
35313;DHT22;21425;50.454;30.466;2023-04-01T03:04:15;9.80;99.90
35313;DHT22;21425;50.454;30.466;2023-04-01T03:06:40;6.80;99.90
35313;DHT22;21425;50.454;30.466;2023-04-01T03:09:06;8.60;99.90
35313;DHT22;21425;50.454;30.466;2023-04-01T03:11:31;6.90;99.90
35313;DHT22;21425;50.454;30.466;2023-04-01T03:13:57;7.00;99.90
35313;DHT22;21425;50.454;30.466;2023-04-01T03:16:23;6.90;99.90
35313;DHT22;21425;50.454;30.466;2023-04-01T03:18:48;10.20;99.90
35313;DHT22;21425;50.454;30.466;2023-04-01T03:21:16;6.80;99.90
35313;DHT22;21425;50.454;30.466;2023-04-01T03:23:42;6.90;99.90
35313;DHT22;21425;50.454;30.466;2023-04-01T03:26:07;6.80;99.90
35313;DHT22;21425;50.454;30.466;2023-04-01T03:28:33;6.90;99.90
35313;DHT22;21425;50.454;30.466;2023-04-01T03:30:59;6.90;99.90
35313;DHT22;21425;50.454;30.466;2023-04-01T03:33:24;6.80;99.90
35313;DHT22;21425;50.454;30.466;2023-04-01T03:35:50;10.70;99.90
35313;DHT22;21425;50.454;30.466;2023-04-01T03:38:17;7.00;99.90
35313;DHT22;21425;50.454;30.466;2023-04-01T03:40:43;4.90;99.90
35313;DHT22;21425;50.454;30.466;2023-04-01T03:43:09;8.20;99.90
35313;DHT22;21425;50.454;30.466;2023-04-01T03:45:35;6.50;99.90
35313;DHT22;21425;50.454;30.466;2023-04-01T03:48:00;6.90;99.90
35313;DHT22;21425;50.454;30.466;2023-04-01T03:50:26;6.80;99.90
35313;DHT22;21425;50.454;30.466;2023-04-01T03:52:51;7.20;99.90
35313;DHT22;21425;50.454;30.466;2023-04-01T03:55:17;6.70;99.90
35313;DHT22;21425;50.454;30.466;2023-04-01T03:57:43;6.80;99.90
35313;DHT22;21425;50.454;30.466;2023-04-01T04:00:09;9.80;99.90
35313;DHT22;21425;50.454;30.466;2023-04-01T04:02:35;6.80;99.90
35313;DHT22;21425;50.454;30.466;2023-04-01T04:05:01;9.20;99.90
35313;DHT22;21425;50.454;30.466;2023-04-01T04:07:26;8.10;99.90
35313;DHT22;21425;50.454;30.466;2023-04-01T04:09:51;6.90;99.90
35313;DHT22;21425;50.454;30.466;2023-04-01T04:12:17;7.90;99.90
35313;DHT22;21425;50.454;30.466;2023-04-01T04:14:42;7.00;99.90
35313;DHT22;21425;50.454;30.466;2023-04-01T04:17:10;7.00;99.90
35313;DHT22;21425;50.454;30.466;2023-04-01T04:19:38;7.10;99.90
35313;DHT22;21425;50.454;30.466;2023-04-01T04:22:04;7.70;99.90
35313;DHT22;21425;50.454;30.466;2023-04-01T04:24:29;6.40;99.90
35313;DHT22;21425;50.454;30.466;2023-04-01T04:26:55;7.80;99.90
35313;DHT22;21425;50.454;30.466;2023-04-01T04:29:20;7.00;99.90
35313;DHT22;21425;50.454;30.466;2023-04-01T04:31:47;7.40;99.90
35313;DHT22;21425;50.454;30.466;2023-04-01T04:34:13;7.00;99.90
35313;DHT22;21425;50.454;30.466;2023-04-01T04:36:39;7.10;99.90
35313;DHT22;21425;50.454;30.466;2023-04-01T04:39:04;7.10;99.90
35313;DHT22;21425;50.454;30.466;2023-04-01T04:41:30;7.20;99.90
35313;DHT22;21425;50.454;30.466;2023-04-01T04:43:56;7.10;99.90
35313;DHT22;21425;50.454;30.466;2023-04-01T04:46:22;6.80;99.90
35313;DHT22;21425;50.454;30.466;2023-04-01T04:48:47;8.00;99.90
35313;DHT22;21425;50.454;30.466;2023-04-01T04:51:16;7.30;99.90
35313;DHT22;21425;50.454;30.466;2023-04-01T04:53:42;7.30;99.90
35313;DHT22;21425;50.454;30.466;2023-04-01T04:56:08;5.80;99.90
35313;DHT22;21425;50.454;30.466;2023-04-01T04:58:34;7.80;99.90
35313;DHT22;21425;50.454;30.466;2023-04-01T05:01:04;7.50;99.90
35313;DHT22;21425;50.454;30.466;2023-04-01T05:03:30;9.50;99.90
35313;DHT22;21425;50.454;30.466;2023-04-01T05:05:56;7.50;99.90
35313;DHT22;21425;50.454;30.466;2023-04-01T05:08:21;6.70;99.90
35313;DHT22;21425;50.454;30.466;2023-04-01T05:10:47;7.80;99.90
35313;DHT22;21425;50.454;30.466;2023-04-01T05:13:12;8.60;99.90
35313;DHT22;21425;50.454;30.466;2023-04-01T05:15:38;7.80;99.90
35313;DHT22;21425;50.454;30.466;2023-04-01T05:18:03;8.40;99.90
35313;DHT22;21425;50.454;30.466;2023-04-01T05:20:29;7.80;99.90
35313;DHT22;21425;50.454;30.466;2023-04-01T05:22:58;7.90;99.90
35313;DHT22;21425;50.454;30.466;2023-04-01T05:25:23;8.00;99.90
35313;DHT22;21425;50.454;30.466;2023-04-01T05:27:49;6.60;99.90
35313;DHT22;21425;50.454;30.466;2023-04-01T05:30:15;9.80;99.90
35313;DHT22;21425;50.454;30.466;2023-04-01T05:32:40;8.30;99.90
35313;DHT22;21425;50.454;30.466;2023-04-01T05:35:06;8.40;99.90
35313;DHT22;21425;50.454;30.466;2023-04-01T05:37:33;8.60;99.90
35313;DHT22;21425;50.454;30.466;2023-04-01T05:39:58;8.60;99.90
35313;DHT22;21425;50.454;30.466;2023-04-01T05:42:24;9.00;99.90
35313;DHT22;21425;50.454;30.466;2023-04-01T05:44:49;8.10;99.90
35313;DHT22;21425;50.454;30.466;2023-04-01T05:47:15;9.20;99.90
35313;DHT22;21425;50.454;30.466;2023-04-01T05:49:40;8.50;99.90
35313;DHT22;21425;50.454;30.466;2023-04-01T05:52:06;8.40;99.90
35313;DHT22;21425;50.454;30.466;2023-04-01T05:54:31;8.60;99.90
35313;DHT22;21425;50.454;30.466;2023-04-01T05:56:57;8.40;99.90
35313;DHT22;21425;50.454;30.466;2023-04-01T05:59:22;10.80;99.90
35313;DHT22;21425;50.454;30.466;2023-04-01T06:01:48;9.80;99.90
35313;DHT22;21425;50.454;30.466;2023-04-01T06:04:14;9.50;99.90
35313;DHT22;21425;50.454;30.466;2023-04-01T06:06:40;8.40;99.90
35313;DHT22;21425;50.454;30.466;2023-04-01T06:09:18;8.20;99.90
35313;DHT22;21425;50.454;30.466;2023-04-01T06:17:01;12.10;99.90
35313;DHT22;21425;50.454;30.466;2023-04-01T06:32:51;8.40;99.90
35313;DHT22;21425;50.454;30.466;2023-04-01T06:50:24;9.30;99.90
35313;DHT22;21425;50.454;30.466;2023-04-01T06:55:32;10.10;99.90
35313;DHT22;21425;50.454;30.466;2023-04-01T06:57:58;10.50;99.90
35313;DHT22;21425;50.454;30.466;2023-04-01T07:02:55;11.50;99.90
35313;DHT22;21425;50.454;30.466;2023-04-01T07:05:23;11.80;99.90
35313;DHT22;21425;50.454;30.466;2023-04-01T07:07:50;11.50;99.90
35313;DHT22;21425;50.454;30.466;2023-04-01T07:12:50;11.20;99.90
35313;DHT22;21425;50.454;30.466;2023-04-01T07:15:20;11.80;99.90
35313;DHT22;21425;50.454;30.466;2023-04-01T07:17:48;11.50;99.90
35313;DHT22;21425;50.454;30.466;2023-04-01T07:20:18;11.50;99.90
35313;DHT22;21425;50.454;30.466;2023-04-01T07:22:46;11.80;99.90
35313;DHT22;21425;50.454;30.466;2023-04-01T07:25:17;11.70;99.90
35313;DHT22;21425;50.454;30.466;2023-04-01T07:27:43;11.50;99.90
35313;DHT22;21425;50.454;30.466;2023-04-01T07:30:16;11.30;99.90
35313;DHT22;21425;50.454;30.466;2023-04-01T07:32:44;11.30;99.90
35313;DHT22;21425;50.454;30.466;2023-04-01T07:50:31;11.30;99.90
35313;DHT22;21425;50.454;30.466;2023-04-01T07:55:40;11.60;99.90
35313;DHT22;21425;50.454;30.466;2023-04-01T07:58:11;11.90;99.90
35313;DHT22;21425;50.454;30.466;2023-04-01T08:00:52;12.10;99.90
35313;DHT22;21425;50.454;30.466;2023-04-01T08:06:03;12.10;99.90
35313;DHT22;21425;50.454;30.466;2023-04-01T08:08:53;12.30;99.90
35313;DHT22;21425;50.454;30.466;2023-04-01T08:11:25;12.20;99.90
35313;DHT22;21425;50.454;30.466;2023-04-01T08:13:55;12.00;99.90
35313;DHT22;21425;50.454;30.466;2023-04-01T08:18:59;12.10;99.90
35313;DHT22;21425;50.454;30.466;2023-04-01T08:21:35;12.00;99.90
35313;DHT22;21425;50.454;30.466;2023-04-01T08:24:16;11.50;99.90
35313;DHT22;21425;50.454;30.466;2023-04-01T08:26:44;11.40;99.90
35313;DHT22;21425;50.454;30.466;2023-04-01T08:29:17;11.30;99.90
35313;DHT22;21425;50.454;30.466;2023-04-01T08:34:18;11.70;99.90
35313;DHT22;21425;50.454;30.466;2023-04-01T08:36:59;11.60;99.90
35313;DHT22;21425;50.454;30.466;2023-04-01T08:39:31;11.80;99.90
35313;DHT22;21425;50.454;30.466;2023-04-01T08:51:56;10.70;99.90
35313;DHT22;21425;50.454;30.466;2023-04-01T09:02:04;12.20;99.90
35313;DHT22;21425;50.454;30.466;2023-04-01T09:04:58;12.30;99.90
35313;DHT22;21425;50.454;30.466;2023-04-01T09:10:17;12.40;99.90
35313;DHT22;21425;50.454;30.466;2023-04-01T09:20:42;12.60;99.90
35313;DHT22;21425;50.454;30.466;2023-04-01T09:28:28;13.00;99.90
35313;DHT22;21425;50.454;30.466;2023-04-01T09:33:37;13.20;99.90
35313;DHT22;21425;50.454;30.466;2023-04-01T09:36:12;13.60;99.90
35313;DHT22;21425;50.454;30.466;2023-04-01T09:51:39;14.00;99.90
35313;DHT22;21425;50.454;30.466;2023-04-01T09:54:10;13.90;99.90
35313;DHT22;21425;50.454;30.466;2023-04-01T09:57:00;14.10;99.90
35313;DHT22;21425;50.454;30.466;2023-04-01T09:59:47;14.30;99.90
35313;DHT22;21425;50.454;30.466;2023-04-01T10:38:45;14.10;99.90
35313;DHT22;21425;50.454;30.466;2023-04-01T10:41:34;14.50;99.90
35313;DHT22;21425;50.454;30.466;2023-04-01T10:57:10;15.60;99.90
35313;DHT22;21425;50.454;30.466;2023-04-01T10:59:58;15.80;99.90
35313;DHT22;21425;50.454;30.466;2023-04-01T11:13:04;16.20;95.40
35313;DHT22;21425;50.454;30.466;2023-04-01T11:28:35;15.70;99.90
35313;DHT22;21425;50.454;30.466;2023-04-01T11:33:36;15.10;99.90
35313;DHT22;21425;50.454;30.466;2023-04-01T11:41:35;14.80;99.90
35313;DHT22;21425;50.454;30.466;2023-04-01T11:44:15;14.90;99.90
35313;DHT22;21425;50.454;30.466;2023-04-01T11:52:09;14.90;99.90
35313;DHT22;21425;50.454;30.466;2023-04-01T11:54:56;14.80;99.90
35313;DHT22;21425;50.454;30.466;2023-04-01T11:57:42;11.90;99.90
35313;DHT22;21425;50.454;30.466;2023-04-01T12:00:18;14.80;99.90
35313;DHT22;21425;50.454;30.466;2023-04-01T12:03:07;14.90;99.90
35313;DHT22;21425;50.454;30.466;2023-04-01T12:05:37;15.10;99.90
35313;DHT22;21425;50.454;30.466;2023-04-01T12:13:12;13.70;99.90
35313;DHT22;21425;50.454;30.466;2023-04-01T12:18:38;15.10;99.90
35313;DHT22;21425;50.454;30.466;2023-04-01T12:21:11;15.30;99.90
35313;DHT22;21425;50.454;30.466;2023-04-01T12:26:35;15.20;99.90
35313;DHT22;21425;50.454;30.466;2023-04-01T12:29:13;15.20;99.90
35313;DHT22;21425;50.454;30.466;2023-04-01T12:37:02;15.10;99.90
35313;DHT22;21425;50.454;30.466;2023-04-01T12:42:30;14.70;99.90
35313;DHT22;21425;50.454;30.466;2023-04-01T12:47:39;14.40;99.90
35313;DHT22;21425;50.454;30.466;2023-04-01T12:50:18;14.40;99.90
35313;DHT22;21425;50.454;30.466;2023-04-01T12:53:01;14.80;99.90
35313;DHT22;21425;50.454;30.466;2023-04-01T12:55:38;14.60;99.90
35313;DHT22;21425;50.454;30.466;2023-04-01T13:00:43;15.10;99.90
35313;DHT22;21425;50.454;30.466;2023-04-01T13:08:32;15.00;99.90
35313;DHT22;21425;50.454;30.466;2023-04-01T13:11:09;15.00;99.90
35313;DHT22;21425;50.454;30.466;2023-04-01T13:13:42;17.20;99.90
35313;DHT22;21425;50.454;30.466;2023-04-01T13:24:00;15.30;99.90
35313;DHT22;21425;50.454;30.466;2023-04-01T13:36:58;15.10;99.90
35313;DHT22;21425;50.454;30.466;2023-04-01T13:39:46;15.00;99.90
35313;DHT22;21425;50.454;30.466;2023-04-01T13:42:21;15.20;99.90
35313;DHT22;21425;50.454;30.466;2023-04-01T14:00:33;14.70;99.90
35313;DHT22;21425;50.454;30.466;2023-04-01T14:03:11;14.70;99.90
35313;DHT22;21425;50.454;30.466;2023-04-01T14:18:47;13.90;99.90
35313;DHT22;21425;50.454;30.466;2023-04-01T14:26:33;14.00;99.90
35313;DHT22;21425;50.454;30.466;2023-04-01T14:34:25;14.10;99.90
35313;DHT22;21425;50.454;30.466;2023-04-01T14:49:30;14.00;99.90
35313;DHT22;21425;50.454;30.466;2023-04-01T14:52:03;14.00;99.90
35313;DHT22;21425;50.454;30.466;2023-04-01T14:54:30;14.00;99.90
35313;DHT22;21425;50.454;30.466;2023-04-01T14:57:09;14.00;99.90
35313;DHT22;21425;50.454;30.466;2023-04-01T14:59:34;13.70;99.90
35313;DHT22;21425;50.454;30.466;2023-04-01T15:10:35;11.40;99.90
35313;DHT22;21425;50.454;30.466;2023-04-01T15:15:52;9.80;99.90
35313;DHT22;21425;50.454;30.466;2023-04-01T15:18:36;13.00;99.90
35313;DHT22;21425;50.454;30.466;2023-04-01T15:23:56;13.10;99.90
35313;DHT22;21425;50.454;30.466;2023-04-01T15:34:08;12.80;99.90
35313;DHT22;21425;50.454;30.466;2023-04-01T15:36:42;15.10;99.90
35313;DHT22;21425;50.454;30.466;2023-04-01T15:39:12;12.70;99.90
35313;DHT22;21425;50.454;30.466;2023-04-01T15:49:53;12.20;99.90
35313;DHT22;21425;50.454;30.466;2023-04-01T15:52:24;12.40;99.90
35313;DHT22;21425;50.454;30.466;2023-04-01T15:55:18;12.20;99.90
35313;DHT22;21425;50.454;30.466;2023-04-01T16:00:30;11.90;99.90
35313;DHT22;21425;50.454;30.466;2023-04-01T16:05:37;11.90;99.90
35313;DHT22;21425;50.454;30.466;2023-04-01T16:08:09;11.80;99.90
35313;DHT22;21425;50.454;30.466;2023-04-01T16:16:14;11.50;99.90
35313;DHT22;21425;50.454;30.466;2023-04-01T16:21:33;11.40;99.90
35313;DHT22;21425;50.454;30.466;2023-04-01T16:24:09;11.70;99.90
35313;DHT22;21425;50.454;30.466;2023-04-01T16:26:39;11.30;99.90
35313;DHT22;21425;50.454;30.466;2023-04-01T16:31:38;11.20;99.90
35313;DHT22;21425;50.454;30.466;2023-04-01T16:34:10;11.10;99.90
35313;DHT22;21425;50.454;30.466;2023-04-01T16:36:58;11.10;99.90
35313;DHT22;21425;50.454;30.466;2023-04-01T16:39:30;11.00;99.90
35313;DHT22;21425;50.454;30.466;2023-04-01T16:44:47;10.80;99.90
35313;DHT22;21425;50.454;30.466;2023-04-01T16:47:14;10.70;99.90
35313;DHT22;21425;50.454;30.466;2023-04-01T16:49:44;10.70;99.90
35313;DHT22;21425;50.454;30.466;2023-04-01T16:54:42;10.60;99.90
35313;DHT22;21425;50.454;30.466;2023-04-01T16:59:37;10.40;99.90
35313;DHT22;21425;50.454;30.466;2023-04-01T17:06:57;10.60;99.90
35313;DHT22;21425;50.454;30.466;2023-04-01T17:32:16;10.50;99.90
35313;DHT22;21425;50.454;30.466;2023-04-01T17:34:46;10.50;99.90
35313;DHT22;21425;50.454;30.466;2023-04-01T17:37:27;11.20;99.90
35313;DHT22;21425;50.454;30.466;2023-04-01T17:40:05;10.40;99.90
35313;DHT22;21425;50.454;30.466;2023-04-01T17:42:40;10.40;99.90
35313;DHT22;21425;50.454;30.466;2023-04-01T17:45:20;10.40;99.90
35313;DHT22;21425;50.454;30.466;2023-04-01T17:48:11;10.20;99.90
35313;DHT22;21425;50.454;30.466;2023-04-01T17:56:18;10.30;99.90
35313;DHT22;21425;50.454;30.466;2023-04-01T17:58:59;10.20;99.90
35313;DHT22;21425;50.454;30.466;2023-04-01T18:22:17;10.10;99.90
35313;DHT22;21425;50.454;30.466;2023-04-01T18:27:29;10.00;99.90
35313;DHT22;21425;50.454;30.466;2023-04-01T18:30:00;10.00;99.90
35313;DHT22;21425;50.454;30.466;2023-04-01T18:32:35;9.80;99.90
35313;DHT22;21425;50.454;30.466;2023-04-01T18:40:23;9.70;99.90
35313;DHT22;21425;50.454;30.466;2023-04-01T18:45:33;9.70;99.90
35313;DHT22;21425;50.454;30.466;2023-04-01T18:48:11;9.60;99.90
35313;DHT22;21425;50.454;30.466;2023-04-01T18:50:41;9.60;99.90
35313;DHT22;21425;50.454;30.466;2023-04-01T18:55:46;9.90;99.90
35313;DHT22;21425;50.454;30.466;2023-04-01T19:00:49;9.60;99.90
35313;DHT22;21425;50.454;30.466;2023-04-01T19:05:47;9.80;99.90
35313;DHT22;21425;50.454;30.466;2023-04-01T19:08:30;11.30;99.90
35313;DHT22;21425;50.454;30.466;2023-04-01T19:11:03;9.60;99.90
35313;DHT22;21425;50.454;30.466;2023-04-01T19:16:12;9.60;99.90
35313;DHT22;21425;50.454;30.466;2023-04-01T19:18:53;9.50;99.90
35313;DHT22;21425;50.454;30.466;2023-04-01T19:26:57;9.50;99.90
35313;DHT22;21425;50.454;30.466;2023-04-01T19:29:26;9.60;99.90
35313;DHT22;21425;50.454;30.466;2023-04-01T19:45:17;9.30;99.90
35313;DHT22;21425;50.454;30.466;2023-04-01T19:52:30;9.30;99.90
35313;DHT22;21425;50.454;30.466;2023-04-01T19:55:03;9.40;99.90
35313;DHT22;21425;50.454;30.466;2023-04-01T20:00:24;9.20;99.90
35313;DHT22;21425;50.454;30.466;2023-04-01T20:10:48;12.30;99.90
35313;DHT22;21425;50.454;30.466;2023-04-01T20:13:53;9.30;99.90
35313;DHT22;21425;50.454;30.466;2023-04-01T20:16:09;9.20;99.90
35313;DHT22;21425;50.454;30.466;2023-04-01T20:18:41;10.60;99.90
35313;DHT22;21425;50.454;30.466;2023-04-01T20:21:18;9.20;99.90
35313;DHT22;21425;50.454;30.466;2023-04-01T20:23:50;9.20;99.90
35313;DHT22;21425;50.454;30.466;2023-04-01T20:26:21;9.20;99.90
35313;DHT22;21425;50.454;30.466;2023-04-01T20:31:31;9.10;99.90
35313;DHT22;21425;50.454;30.466;2023-04-01T20:36:26;10.00;99.90
35313;DHT22;21425;50.454;30.466;2023-04-01T20:39:10;9.20;99.90
35313;DHT22;21425;50.454;30.466;2023-04-01T20:52:07;9.40;99.90
35313;DHT22;21425;50.454;30.466;2023-04-01T20:57:21;9.10;99.90
35313;DHT22;21425;50.454;30.466;2023-04-01T21:10:41;9.00;99.90
35313;DHT22;21425;50.454;30.466;2023-04-01T21:20:51;9.00;99.90
35313;DHT22;21425;50.454;30.466;2023-04-01T21:38:31;8.80;99.90
35313;DHT22;21425;50.454;30.466;2023-04-01T21:47:02;8.80;99.90
35313;DHT22;21425;50.454;30.466;2023-04-01T21:55:13;8.70;99.90
35313;DHT22;21425;50.454;30.466;2023-04-01T22:00:24;8.60;99.90
35313;DHT22;21425;50.454;30.466;2023-04-01T22:05:22;6.10;99.90
35313;DHT22;21425;50.454;30.466;2023-04-01T22:07:59;8.70;99.90
35313;DHT22;21425;50.454;30.466;2023-04-01T22:10:44;8.60;99.90
35313;DHT22;21425;50.454;30.466;2023-04-01T22:18:15;8.70;99.90
35313;DHT22;21425;50.454;30.466;2023-04-01T22:20:48;8.60;99.90
35313;DHT22;21425;50.454;30.466;2023-04-01T22:23:26;8.60;99.90
35313;DHT22;21425;50.454;30.466;2023-04-01T22:25:56;8.80;99.90
35313;DHT22;21425;50.454;30.466;2023-04-01T22:31:03;7.10;99.90
35313;DHT22;21425;50.454;30.466;2023-04-01T22:33:32;11.10;99.90
35313;DHT22;21425;50.454;30.466;2023-04-01T22:36:06;8.60;99.90
35313;DHT22;21425;50.454;30.466;2023-04-01T22:38:50;8.80;99.90
35313;DHT22;21425;50.454;30.466;2023-04-01T22:44:07;8.50;99.90
35313;DHT22;21425;50.454;30.466;2023-04-01T22:49:12;8.50;99.90
35313;DHT22;21425;50.454;30.466;2023-04-01T22:56:48;8.60;99.90
35313;DHT22;21425;50.454;30.466;2023-04-01T23:02:07;8.50;99.90
35313;DHT22;21425;50.454;30.466;2023-04-01T23:04:36;7.30;99.90
35313;DHT22;21425;50.454;30.466;2023-04-01T23:07:04;8.50;99.90
35313;DHT22;21425;50.454;30.466;2023-04-01T23:09:31;8.70;99.90
35313;DHT22;21425;50.454;30.466;2023-04-01T23:12:00;8.70;99.90
35313;DHT22;21425;50.454;30.466;2023-04-01T23:14:33;12.20;99.90
35313;DHT22;21425;50.454;30.466;2023-04-01T23:27:45;8.60;99.90
35313;DHT22;21425;50.454;30.466;2023-04-01T23:35:58;8.40;99.90
35313;DHT22;21425;50.454;30.466;2023-04-01T23:38:31;6.90;99.90
35313;DHT22;21425;50.454;30.466;2023-04-01T23:40:57;8.40;99.90
35313;DHT22;21425;50.454;30.466;2023-04-01T23:45:52;8.40;99.90
35313;DHT22;21425;50.454;30.466;2023-04-01T23:48:25;9.80;99.90
35313;DHT22;21425;50.454;30.466;2023-04-01T23:50:51;8.60;99.90
35313;DHT22;21425;50.454;30.466;2023-04-01T23:53:18;8.40;99.90
35313;DHT22;21425;50.454;30.466;2023-04-01T23:55:45;7.20;99.90
